createdAt,value
2023-03-26T00:01:00.864Z,90.11
2023-03-26T00:03:03.098Z,90.47
2023-03-26T00:05:05.330Z,89.78
2023-03-26T00:07:06.793Z,90.78
2023-03-26T00:09:13.162Z,91.10
2023-03-26T00:11:17.178Z,89.82
2023-03-26T00:13:18.565Z,90.50
2023-03-26T00:15:19.994Z,90.68
2023-03-26T00:17:21.583Z,90.40
2023-03-26T00:19:22.968Z,91.16
2023-03-26T00:21:27.640Z,90.67
2023-03-26T00:23:30.252Z,90.59
2023-03-26T00:25:34.829Z,90.71
2023-03-26T00:27:36.366Z,90.44
2023-03-26T00:29:39.832Z,90.91
2023-03-26T00:31:46.204Z,91.11
2023-03-26T00:33:48.055Z,91.73
2023-03-26T00:35:58.611Z,91.07
2023-03-26T00:38:01.097Z,91.33
2023-03-26T00:40:06.985Z,91.56
2023-03-26T00:42:08.377Z,90.49
2023-03-26T00:44:10.472Z,91.26
2023-03-26T00:46:12.141Z,92.01
2023-03-26T00:48:14.457Z,91.29
2023-03-26T00:50:16.224Z,90.59
2023-03-26T00:52:21.026Z,90.67
2023-03-26T00:54:22.452Z,90.75
2023-03-26T00:56:24.178Z,90.81
2023-03-26T00:58:26.976Z,90.93
2023-03-26T01:00:35.454Z,91.82
2023-03-26T01:02:36.983Z,90.95
2023-03-26T01:04:38.622Z,90.71
2023-03-26T01:06:42.457Z,91.58
2023-03-26T01:08:48.592Z,90.96
2023-03-26T01:10:53.648Z,91.53
2023-03-26T01:12:55.023Z,90.56
2023-03-26T01:15:00.670Z,90.63
2023-03-26T01:17:07.884Z,90.12
2023-03-26T01:19:29.272Z,90.37
2023-03-26T01:21:30.676Z,89.57
2023-03-26T01:23:40.465Z,89.83
2023-03-26T01:25:49.378Z,89.80
2023-03-26T01:27:55.796Z,91.28
2023-03-26T01:30:17.386Z,90.63
2023-03-26T01:32:27.784Z,90.48
2023-03-26T01:34:46.996Z,89.72
2023-03-26T01:37:02.558Z,89.88
2023-03-26T01:39:30.821Z,89.88
2023-03-26T01:41:39.795Z,90.57
2023-03-26T01:43:54.144Z,90.39
2023-03-26T01:45:59.883Z,90.62
2023-03-26T01:48:02.102Z,89.51
2023-03-26T01:50:03.749Z,90.13
2023-03-26T01:52:34.516Z,90.48
2023-03-26T01:54:37.118Z,89.63
2023-03-26T01:56:50.781Z,89.48
2023-03-26T01:59:06.247Z,88.66
2023-03-26T02:01:36.591Z,89.09
2023-03-26T02:03:51.526Z,88.34
2023-03-26T02:06:22.689Z,88.40
2023-03-26T02:08:35.441Z,88.93
2023-03-26T02:10:41.449Z,88.80
2023-03-26T02:12:44.576Z,88.99
2023-03-26T02:14:46.337Z,88.37
2023-03-26T02:16:47.880Z,88.99
2023-03-26T02:18:55.517Z,88.83
2023-03-26T02:20:56.889Z,89.37
2023-03-26T02:22:58.598Z,88.90
2023-03-26T02:25:00.008Z,89.12
2023-03-26T02:27:02.166Z,88.40
2023-03-26T02:29:03.790Z,88.80
2023-03-26T02:31:06.364Z,88.76
2023-03-26T02:33:07.810Z,88.80
2023-03-26T02:35:10.102Z,88.87
2023-03-26T02:37:11.522Z,89.54
2023-03-26T02:39:14.185Z,89.31
2023-03-26T02:41:15.734Z,88.92
2023-03-26T02:43:17.182Z,88.68
2023-03-26T02:45:18.592Z,88.78
2023-03-26T02:47:20.152Z,90.05
2023-03-26T02:49:21.853Z,88.89
2023-03-26T02:51:23.310Z,89.33
2023-03-26T02:53:29.821Z,89.38
2023-03-26T02:55:31.296Z,90.65
2023-03-26T02:57:32.793Z,90.44
2023-03-26T02:59:34.188Z,90.39
2023-03-26T03:01:35.704Z,90.78
2023-03-26T03:03:37.790Z,90.56
2023-03-26T03:05:43.122Z,90.42
2023-03-26T03:07:46.334Z,90.70
2023-03-26T03:09:50.580Z,90.47
2023-03-26T03:11:52.641Z,90.47
2023-03-26T03:13:54.389Z,90.23
2023-03-26T03:15:56.346Z,90.39
2023-03-26T03:17:58.011Z,90.32
2023-03-26T03:19:59.501Z,90.45
2023-03-26T03:22:00.970Z,90.34
2023-03-26T03:24:02.421Z,90.26
2023-03-26T03:26:04.015Z,90.74
2023-03-26T03:28:05.960Z,90.02
2023-03-26T03:30:08.901Z,90.28
2023-03-26T03:32:10.277Z,91.59
2023-03-26T03:34:11.666Z,91.49
2023-03-26T03:36:19.923Z,91.03
2023-03-26T03:38:22.495Z,90.89
2023-03-26T03:40:24.094Z,91.06
2023-03-26T03:42:27.281Z,91.91
2023-03-26T03:44:28.718Z,91.44
2023-03-26T03:46:30.261Z,91.04
2023-03-26T03:48:31.681Z,90.87
2023-03-26T03:50:35.653Z,90.89
2023-03-26T03:52:37.406Z,91.22
2023-03-26T03:54:38.783Z,91.64
2023-03-26T03:56:40.259Z,90.84
2023-03-26T03:58:42.186Z,91.25
2023-03-26T04:00:44.807Z,90.97
2023-03-26T04:02:46.384Z,91.49
2023-03-26T04:04:50.235Z,91.29
2023-03-26T04:06:52.642Z,91.05
2023-03-26T04:08:53.987Z,91.62
2023-03-26T04:10:55.617Z,91.31
2023-03-26T04:12:57.065Z,91.86
2023-03-26T04:14:58.938Z,91.97
2023-03-26T04:17:00.542Z,91.53
2023-03-26T04:19:03.834Z,91.67
2023-03-26T04:21:07.298Z,92.80
2023-03-26T04:23:13.934Z,92.20
2023-03-26T04:25:15.519Z,92.38
2023-03-26T04:27:20.346Z,92.76
2023-03-26T04:29:25.602Z,92.68
2023-03-26T04:31:30.980Z,91.97
2023-03-26T04:33:34.615Z,92.29
2023-03-26T04:35:36.158Z,92.07
2023-03-26T04:37:40.703Z,92.21
2023-03-26T04:39:42.113Z,92.20
2023-03-26T04:41:43.524Z,92.26
2023-03-26T04:43:50.429Z,92.47
2023-03-26T04:45:53.293Z,92.60
2023-03-26T04:47:55.464Z,92.88
2023-03-26T04:49:56.979Z,93.20
2023-03-26T04:51:58.466Z,93.09
2023-03-26T04:54:00.857Z,92.39
2023-03-26T04:56:32.890Z,92.48
2023-03-26T04:58:35.255Z,93.00
2023-03-26T05:00:36.684Z,92.68
2023-03-26T05:02:39.827Z,92.74
2023-03-26T05:04:43.696Z,92.00
2023-03-26T05:06:45.338Z,92.75
2023-03-26T05:08:46.720Z,92.04
2023-03-26T05:10:48.126Z,92.38
2023-03-26T05:12:49.797Z,92.12
2023-03-26T05:14:51.167Z,93.29
2023-03-26T05:16:55.785Z,92.18
2023-03-26T05:18:57.419Z,92.65
2023-03-26T05:20:58.955Z,93.38
2023-03-26T05:23:00.409Z,92.80
2023-03-26T05:25:01.871Z,93.25
2023-03-26T05:27:03.285Z,92.60
2023-03-26T05:29:05.146Z,92.18
2023-03-26T05:31:08.094Z,93.08
2023-03-26T05:33:09.524Z,93.10
2023-03-26T05:35:11.606Z,92.96
2023-03-26T05:37:13.723Z,93.12
2023-03-26T05:39:15.170Z,92.31
2023-03-26T05:41:16.936Z,92.53
2023-03-26T05:43:18.308Z,92.11
2023-03-26T05:45:22.525Z,92.50
2023-03-26T05:47:23.944Z,92.99
2023-03-26T05:49:25.502Z,93.32
2023-03-26T05:51:26.930Z,92.88
2023-03-26T05:53:28.544Z,92.62
2023-03-26T05:55:33.313Z,92.19
2023-03-26T05:57:35.529Z,92.08
2023-03-26T05:59:37.001Z,91.76
2023-03-26T06:01:38.520Z,92.18
2023-03-26T06:03:40.399Z,92.15
2023-03-26T06:05:42.996Z,90.99
2023-03-26T06:07:44.358Z,91.08
2023-03-26T06:09:46.359Z,91.54
2023-03-26T06:11:47.741Z,91.66
2023-03-26T06:13:49.133Z,91.65
2023-03-26T06:15:50.804Z,91.94
2023-03-26T06:17:52.206Z,91.29
2023-03-26T06:19:53.599Z,90.51
2023-03-26T06:21:55.102Z,90.40
2023-03-26T06:23:56.592Z,91.12
2023-03-26T06:25:58.611Z,90.78
2023-03-26T06:28:00.208Z,89.91
2023-03-26T06:30:01.624Z,89.46
2023-03-26T06:32:12.701Z,89.39
2023-03-26T06:34:21.285Z,89.35
2023-03-26T06:36:22.695Z,89.96
2023-03-26T06:38:24.265Z,90.29
2023-03-26T06:40:25.920Z,88.90
2023-03-26T06:43:07.500Z,89.53
2023-03-26T06:44:48.688Z,89.43
2023-03-26T06:46:50.195Z,89.11
2023-03-26T06:48:52.053Z,89.03
2023-03-26T06:50:53.677Z,88.81
2023-03-26T06:52:56.103Z,88.28
2023-03-26T06:54:57.483Z,88.72
2023-03-26T06:56:59.847Z,87.95
2023-03-26T06:59:01.366Z,88.34
2023-03-26T07:01:02.936Z,88.88
2023-03-26T07:03:05.108Z,89.00
2023-03-26T07:05:06.810Z,88.47
2023-03-26T07:07:08.425Z,89.07
2023-03-26T07:09:09.821Z,88.48
2023-03-26T07:11:11.246Z,88.32
2023-03-26T07:13:12.703Z,87.69
2023-03-26T07:15:14.202Z,88.90
2023-03-26T07:17:15.691Z,88.61
2023-03-26T07:19:17.452Z,88.17
2023-03-26T07:21:19.863Z,88.42
2023-03-26T07:23:21.544Z,88.38
2023-03-26T07:25:23.205Z,89.14
2023-03-26T07:27:31.612Z,89.17
2023-03-26T07:29:57.610Z,88.63
2023-03-26T07:32:25.271Z,90.14
2023-03-26T07:34:56.105Z,90.63
2023-03-26T07:37:04.641Z,89.94
2023-03-26T07:39:14.894Z,89.55
2023-03-26T07:41:37.346Z,89.74
2023-03-26T07:44:04.853Z,89.48
2023-03-26T07:46:11.657Z,89.42
2023-03-26T07:48:21.894Z,89.03
2023-03-26T07:50:24.856Z,88.72
2023-03-26T07:52:27.230Z,88.51
2023-03-26T07:54:28.914Z,87.93
2023-03-26T07:56:49.217Z,88.32
2023-03-26T07:58:53.434Z,88.97
2023-03-26T08:01:03.457Z,88.36
2023-03-26T08:03:27.711Z,88.90
2023-03-26T08:05:37.178Z,88.38
2023-03-26T08:08:13.656Z,89.08
2023-03-26T08:10:43.047Z,88.87
2023-03-26T08:13:11.532Z,89.35
2023-03-26T08:15:25.679Z,88.63
2023-03-26T08:17:44.875Z,89.00
2023-03-26T08:19:57.918Z,88.86
2023-03-26T08:22:06.910Z,88.90
2023-03-26T08:24:18.168Z,89.06
2023-03-26T08:26:49.326Z,88.94
2023-03-26T08:29:27.342Z,89.74
2023-03-26T08:31:38.926Z,89.90
2023-03-26T08:33:40.758Z,89.34
2023-03-26T08:35:42.725Z,89.85
2023-03-26T08:37:45.271Z,89.35
2023-03-26T08:39:46.706Z,89.75
2023-03-26T08:42:12.787Z,89.83
2023-03-26T08:44:26.093Z,89.77
2023-03-26T08:46:34.528Z,89.69
2023-03-26T08:49:09.778Z,89.72
2023-03-26T08:51:30.915Z,89.44
2023-03-26T08:53:57.065Z,90.14
2023-03-26T08:56:16.877Z,89.66
2023-03-26T08:58:30.399Z,89.45
2023-03-26T09:00:37.826Z,89.04
2023-03-26T09:03:17.802Z,88.91
2023-03-26T09:05:37.688Z,88.64
2023-03-26T09:08:04.647Z,88.51
2023-03-26T09:10:43.648Z,88.73
2023-03-26T09:13:06.422Z,88.62
2023-03-26T09:15:28.991Z,88.42
2023-03-26T09:17:56.620Z,88.68
2023-03-26T09:20:25.616Z,88.27
2023-03-26T09:23:15.342Z,88.47
2023-03-26T09:25:53.128Z,88.14
2023-03-26T09:28:00.479Z,88.54
2023-03-26T09:30:39.388Z,88.64
2023-03-26T09:33:18.492Z,88.03
2023-03-26T09:35:38.123Z,88.06
2023-03-26T09:37:57.069Z,88.22
2023-03-26T09:40:17.363Z,89.01
2023-03-26T09:42:44.918Z,88.33
2023-03-26T09:45:13.705Z,88.37
2023-03-26T09:47:40.736Z,87.68
2023-03-26T09:49:49.142Z,88.23
2023-03-26T09:51:59.549Z,88.22
2023-03-26T09:54:40.670Z,88.87
2023-03-26T09:56:52.797Z,87.88
2023-03-26T09:59:26.081Z,88.52
2023-03-26T10:01:58.487Z,89.47
2023-03-26T10:04:15.010Z,88.66
2023-03-26T10:06:30.788Z,89.13
2023-03-26T10:08:34.930Z,88.68
2023-03-26T10:10:58.981Z,89.95
2023-03-26T10:13:14.919Z,89.10
2023-03-26T10:15:32.460Z,88.44
2023-03-26T10:17:50.864Z,88.76
2023-03-26T10:20:09.623Z,89.37
2023-03-26T10:22:48.656Z,89.63
2023-03-26T10:25:08.989Z,89.26
2023-03-26T10:27:48.120Z,88.92
2023-03-26T10:30:04.708Z,88.75
2023-03-26T10:32:46.628Z,88.63
2023-03-26T10:34:57.811Z,88.26
2023-03-26T10:37:19.399Z,87.77
2023-03-26T10:39:51.235Z,88.12
2023-03-26T10:42:15.388Z,87.63
2023-03-26T10:44:22.838Z,87.55
2023-03-26T10:46:58.549Z,87.49
2023-03-26T10:49:37.620Z,86.81
2023-03-26T10:51:53.339Z,86.91
2023-03-26T10:54:11.178Z,87.34
2023-03-26T10:56:38.877Z,87.03
2023-03-26T10:58:48.462Z,86.26
2023-03-26T11:01:06.378Z,87.38
2023-03-26T11:03:13.371Z,87.37
2023-03-26T11:05:26.468Z,87.67
2023-03-26T11:07:41.861Z,87.92
2023-03-26T11:10:16.631Z,87.75
2023-03-26T11:12:39.784Z,87.27
2023-03-26T11:14:56.605Z,87.69
2023-03-26T11:17:40.842Z,87.59
2023-03-26T11:19:51.520Z,86.99
2023-03-26T11:22:08.882Z,88.62
2023-03-26T11:24:13.406Z,87.94
2023-03-26T11:26:34.563Z,86.12
2023-03-26T11:29:31.896Z,85.43
2023-03-26T11:31:38.974Z,83.63
2023-03-26T11:33:45.964Z,84.05
2023-03-26T11:35:51.666Z,84.60
2023-03-26T11:37:59.227Z,84.76
2023-03-26T11:40:06.388Z,85.65
2023-03-26T11:42:14.012Z,85.22
2023-03-26T11:44:28.186Z,85.87
2023-03-26T11:46:33.195Z,84.36
2023-03-26T11:48:46.149Z,85.38
2023-03-26T11:50:51.769Z,84.87
2023-03-26T11:52:58.980Z,84.66
2023-03-26T11:55:00.404Z,83.93
2023-03-26T11:57:08.316Z,84.82
2023-03-26T11:59:23.649Z,84.59
2023-03-26T12:01:31.760Z,84.39
2023-03-26T12:03:33.756Z,84.10
2023-03-26T12:05:48.508Z,84.22
2023-03-26T12:07:53.785Z,84.08
2023-03-26T12:10:18.179Z,83.14
2023-03-26T12:12:24.709Z,84.01
2023-03-26T12:14:28.343Z,82.67
2023-03-26T12:16:30.483Z,83.41
2023-03-26T12:18:32.379Z,82.69
2023-03-26T12:20:36.632Z,82.95
2023-03-26T12:22:43.372Z,81.49
2023-03-26T12:24:45.870Z,82.67
2023-03-26T12:26:48.934Z,83.11
2023-03-26T12:28:51.131Z,82.79
2023-03-26T12:31:00.766Z,82.36
2023-03-26T12:33:05.818Z,82.28
2023-03-26T12:35:14.113Z,81.92
2023-03-26T12:37:35.489Z,82.05
2023-03-26T12:40:09.489Z,81.36
2023-03-26T12:43:40.319Z,81.32
2023-03-26T12:44:59.270Z,81.63
2023-03-26T12:47:57.603Z,79.44
2023-03-26T12:49:37.820Z,78.82
2023-03-26T12:51:52.364Z,77.79
2023-03-26T12:54:23.729Z,79.13
2023-03-26T12:56:49.808Z,78.52
2023-03-26T12:59:36.439Z,79.26
2023-03-26T13:01:46.549Z,78.84
2023-03-26T13:04:13.512Z,80.33
2023-03-26T13:06:48.467Z,78.65
2023-03-26T13:09:11.842Z,77.21
2023-03-26T13:11:19.370Z,76.95
2023-03-26T13:13:45.652Z,78.41
2023-03-26T13:15:56.873Z,76.77
2023-03-26T13:18:23.225Z,76.62
2023-03-26T13:20:27.503Z,76.26
2023-03-26T13:22:59.620Z,76.43
2023-03-26T13:25:07.437Z,75.40
2023-03-26T13:27:33.798Z,76.79
2023-03-26T13:29:56.964Z,75.59
2023-03-26T13:32:12.697Z,76.79
2023-03-26T13:34:19.429Z,77.36
2023-03-26T13:36:29.710Z,77.49
2023-03-26T13:38:59.083Z,77.75
2023-03-26T13:41:13.173Z,77.24
2023-03-26T13:43:28.243Z,76.41
2023-03-26T13:45:50.845Z,76.69
2023-03-26T13:47:57.110Z,75.07
2023-03-26T13:50:20.943Z,75.01
2023-03-26T13:52:33.134Z,74.79
2023-03-26T13:54:44.124Z,77.05
2023-03-26T13:57:15.009Z,76.96
2023-03-26T13:59:31.772Z,77.15
2023-03-26T14:01:41.075Z,77.56
2023-03-26T14:04:07.626Z,77.54
2023-03-26T14:06:48.888Z,77.49
2023-03-26T14:08:58.144Z,78.03
2023-03-26T14:11:22.757Z,79.25
2023-03-26T14:13:49.568Z,80.07
2023-03-26T14:15:58.926Z,80.86
2023-03-26T14:18:25.813Z,80.38
2023-03-26T14:21:02.937Z,80.16
2023-03-26T14:23:16.601Z,80.48
2023-03-26T14:25:49.053Z,80.38
2023-03-26T14:28:02.001Z,80.72
2023-03-26T14:30:41.249Z,80.18
2023-03-26T14:33:27.197Z,79.34
2023-03-26T14:35:38.704Z,80.58
2023-03-26T14:37:47.912Z,80.50
2023-03-26T14:39:55.346Z,80.82
2023-03-26T14:42:02.104Z,80.61
2023-03-26T14:44:47.997Z,81.51
2023-03-26T14:47:16.664Z,80.06
2023-03-26T14:49:43.616Z,79.15
2023-03-26T14:51:58.864Z,81.48
2023-03-26T14:54:06.833Z,80.40
2023-03-26T14:56:26.229Z,80.03
2023-03-26T14:58:55.787Z,81.13
2023-03-26T15:01:22.424Z,80.78
2023-03-26T15:04:08.534Z,79.66
2023-03-26T15:06:25.163Z,80.51
2023-03-26T15:08:34.350Z,81.08
2023-03-26T15:11:13.337Z,81.21
2023-03-26T15:13:36.553Z,79.66
2023-03-26T15:16:05.100Z,81.09
2023-03-26T15:18:27.726Z,81.65
2023-03-26T15:20:35.058Z,81.83
2023-03-26T15:23:07.514Z,81.24
2023-03-26T15:25:14.709Z,80.75
2023-03-26T15:27:42.173Z,80.88
2023-03-26T15:29:49.410Z,80.97
2023-03-26T15:32:12.459Z,81.51
2023-03-26T15:34:58.295Z,82.51
2023-03-26T15:37:38.097Z,83.06
2023-03-26T15:40:08.065Z,82.81
2023-03-26T15:42:30.891Z,81.66
2023-03-26T15:44:50.957Z,81.71
2023-03-26T15:47:40.318Z,82.57
2023-03-26T15:49:49.114Z,83.38
2023-03-26T15:52:22.030Z,83.95
2023-03-26T15:54:35.566Z,84.67
2023-03-26T15:56:55.221Z,85.84
2023-03-26T15:59:23.417Z,85.90
2023-03-26T16:01:50.134Z,85.20
2023-03-26T16:04:09.021Z,86.48
2023-03-26T16:06:35.806Z,86.63
2023-03-26T16:09:17.128Z,87.12
2023-03-26T16:11:56.020Z,86.85
2023-03-26T16:14:23.204Z,86.58
2023-03-26T16:16:50.599Z,86.54
2023-03-26T16:18:58.399Z,86.61
2023-03-26T16:21:31.503Z,87.71
2023-03-26T16:24:12.523Z,88.64
2023-03-26T16:26:22.922Z,88.74
2023-03-26T16:28:29.230Z,88.17
2023-03-26T16:30:32.900Z,87.67
2023-03-26T16:32:40.353Z,88.70
2023-03-26T16:35:20.620Z,88.84
2023-03-26T16:37:45.623Z,88.49
2023-03-26T16:39:47.255Z,89.40
2023-03-26T16:41:50.042Z,88.29
2023-03-26T16:43:56.058Z,88.58
2023-03-26T16:46:08.376Z,89.34
2023-03-26T16:48:34.458Z,89.29
2023-03-26T16:50:56.645Z,89.44
2023-03-26T16:53:13.581Z,89.40
2023-03-26T16:55:34.517Z,89.72
2023-03-26T16:58:03.452Z,89.78
2023-03-26T17:00:16.294Z,90.70
2023-03-26T17:02:32.047Z,90.31
2023-03-26T17:04:35.446Z,90.57
2023-03-26T17:07:08.829Z,90.40
2023-03-26T17:09:51.665Z,91.08
2023-03-26T17:12:11.648Z,91.40
2023-03-26T17:14:28.881Z,89.05
2023-03-26T17:16:37.970Z,89.65
2023-03-26T17:19:07.924Z,89.37
2023-03-26T17:21:13.711Z,90.37
2023-03-26T17:23:39.011Z,90.17
2023-03-26T17:26:09.036Z,89.49
2023-03-26T17:28:22.332Z,90.29
2023-03-26T17:30:41.047Z,90.27
2023-03-26T17:32:58.564Z,89.86
2023-03-26T17:35:03.520Z,90.07
2023-03-26T17:37:10.422Z,89.20
2023-03-26T17:39:38.646Z,89.15
2023-03-26T17:41:54.865Z,89.44
2023-03-26T17:43:56.850Z,89.87
2023-03-26T17:46:03.681Z,88.40
2023-03-26T17:48:16.700Z,89.01
2023-03-26T17:50:26.978Z,89.80
2023-03-26T17:52:33.242Z,89.80
2023-03-26T17:54:41.134Z,89.28
2023-03-26T17:56:43.042Z,88.60
2023-03-26T17:58:49.139Z,88.48
2023-03-26T18:00:56.772Z,89.37
2023-03-26T18:03:31.108Z,89.59
2023-03-26T18:05:34.300Z,88.97
2023-03-26T18:07:57.905Z,88.55
2023-03-26T18:10:33.082Z,88.26
2023-03-26T18:13:05.347Z,88.65
2023-03-26T18:15:32.311Z,87.90
2023-03-26T18:17:41.425Z,88.34
2023-03-26T18:19:48.955Z,88.37
2023-03-26T18:21:52.873Z,89.24
2023-03-26T18:24:00.641Z,88.63
2023-03-26T18:26:32.553Z,88.27
2023-03-26T18:28:43.593Z,86.89
2023-03-26T18:30:48.553Z,87.16
2023-03-26T18:33:05.037Z,88.10
2023-03-26T18:35:21.290Z,85.80
2023-03-26T18:37:31.717Z,86.38
2023-03-26T18:39:33.141Z,88.15
2023-03-26T18:41:41.603Z,87.96
2023-03-26T18:43:44.350Z,85.43
2023-03-26T18:45:49.836Z,84.66
2023-03-26T18:48:19.058Z,84.70
2023-03-26T18:50:27.427Z,85.28
2023-03-26T18:52:31.415Z,85.41
2023-03-26T18:54:35.984Z,86.86
2023-03-26T18:56:39.643Z,84.64
2023-03-26T18:58:41.706Z,84.65
2023-03-26T19:00:44.155Z,83.63
2023-03-26T19:02:49.649Z,85.69
2023-03-26T19:04:54.241Z,86.97
2023-03-26T19:06:56.852Z,88.67
2023-03-26T19:08:58.804Z,86.67
2023-03-26T19:11:04.754Z,84.29
2023-03-26T19:13:14.013Z,85.71
2023-03-26T19:15:19.960Z,85.67
2023-03-26T19:17:22.980Z,85.65
2023-03-26T19:19:32.781Z,87.00
2023-03-26T19:21:35.749Z,86.10
2023-03-26T19:23:41.017Z,86.23
2023-03-26T19:25:48.163Z,87.36
2023-03-26T19:27:50.654Z,86.70
2023-03-26T19:29:53.049Z,87.22
2023-03-26T19:32:05.519Z,87.39
2023-03-26T19:34:17.422Z,87.18
2023-03-26T19:36:34.478Z,86.75
2023-03-26T19:38:51.983Z,85.52
2023-03-26T19:40:58.107Z,85.14
2023-03-26T19:42:59.869Z,83.25
2023-03-26T19:45:04.162Z,84.03
2023-03-26T19:47:26.786Z,84.78
2023-03-26T19:49:47.616Z,85.12
2023-03-26T19:51:53.129Z,82.40
2023-03-26T19:53:58.449Z,83.28
2023-03-26T19:56:09.745Z,82.96
2023-03-26T19:58:11.168Z,83.62
2023-03-26T20:00:14.206Z,82.32
2023-03-26T20:02:15.827Z,83.96
2023-03-26T20:04:17.280Z,80.23
2023-03-26T20:06:30.721Z,81.82
2023-03-26T20:08:40.607Z,81.93
2023-03-26T20:10:42.913Z,82.78
2023-03-26T20:12:44.661Z,83.10
2023-03-26T20:14:46.432Z,83.16
2023-03-26T20:16:47.883Z,81.95
2023-03-26T20:18:50.710Z,83.24
2023-03-26T20:20:53.810Z,80.81
2023-03-26T20:22:55.306Z,80.52
2023-03-26T20:24:56.841Z,81.21
2023-03-26T20:26:58.219Z,80.38
2023-03-26T20:28:59.946Z,80.48
2023-03-26T20:31:01.402Z,80.36
2023-03-26T20:33:12.541Z,78.22
2023-03-26T20:35:16.233Z,79.11
2023-03-26T20:37:17.853Z,79.63
2023-03-26T20:39:19.384Z,78.03
2023-03-26T20:41:23.281Z,78.67
2023-03-26T20:43:28.686Z,77.44
2023-03-26T20:45:30.199Z,78.74
2023-03-26T20:47:31.581Z,78.52
2023-03-26T20:49:33.185Z,77.45
2023-03-26T20:51:34.591Z,78.45
2023-03-26T20:53:36.039Z,78.21
2023-03-26T20:55:37.485Z,77.82
2023-03-26T20:57:38.938Z,78.08
2023-03-26T20:59:40.343Z,80.79
2023-03-26T21:01:42.073Z,78.78
2023-03-26T21:03:46.565Z,79.24
2023-03-26T21:05:51.180Z,78.51
2023-03-26T21:07:54.859Z,79.35
2023-03-26T21:09:57.957Z,80.75
2023-03-26T21:12:05.009Z,79.50
2023-03-26T21:14:15.629Z,78.29
2023-03-26T21:16:17.551Z,78.89
2023-03-26T21:18:19.286Z,79.08
2023-03-26T21:20:22.099Z,78.87
2023-03-26T21:22:37.292Z,79.22
2023-03-26T21:24:39.048Z,77.15
2023-03-26T21:26:59.016Z,79.34
2023-03-26T21:29:00.964Z,81.62
2023-03-26T21:31:04.313Z,78.39
2023-03-26T21:33:06.406Z,78.71
2023-03-26T21:35:08.799Z,79.43
2023-03-26T21:37:10.532Z,79.23
2023-03-26T21:39:12.186Z,78.07
2023-03-26T21:41:35.837Z,80.01
2023-03-26T21:43:37.280Z,79.23
2023-03-26T21:45:39.659Z,78.69
2023-03-26T21:47:41.897Z,81.00
2023-03-26T21:49:43.605Z,79.33
2023-03-26T21:51:45.462Z,78.36
2023-03-26T21:53:47.397Z,77.58
2023-03-26T21:55:48.730Z,79.67
2023-03-26T21:58:11.162Z,78.80
2023-03-26T22:00:18.144Z,79.98
2023-03-26T22:02:38.187Z,78.65
2023-03-26T22:04:48.336Z,77.51
2023-03-26T22:07:15.674Z,81.44
2023-03-26T22:09:20.736Z,79.32
2023-03-26T22:11:27.892Z,78.54
2023-03-26T22:13:29.302Z,79.87
2023-03-26T22:15:31.071Z,80.29
2023-03-26T22:17:32.789Z,81.80
2023-03-26T22:19:34.612Z,80.78
2023-03-26T22:21:36.071Z,81.70
2023-03-26T22:23:38.614Z,82.54
2023-03-26T22:25:40.116Z,80.24
2023-03-26T22:27:44.042Z,80.78
2023-03-26T22:29:46.474Z,80.13
2023-03-26T22:31:47.853Z,80.86
2023-03-26T22:33:49.265Z,80.40
2023-03-26T22:35:52.193Z,81.78
2023-03-26T22:38:00.825Z,81.90
2023-03-26T22:40:08.642Z,80.47
2023-03-26T22:42:10.053Z,81.58
2023-03-26T22:44:19.951Z,83.29
2023-03-26T22:46:22.574Z,81.66
2023-03-26T22:48:24.441Z,82.53
2023-03-26T22:50:25.994Z,81.89
2023-03-26T22:52:28.105Z,83.26
2023-03-26T22:54:29.469Z,83.22
2023-03-26T22:56:30.857Z,82.53
2023-03-26T22:58:34.267Z,83.26
2023-03-26T23:00:36.122Z,83.22
2023-03-26T23:02:38.048Z,83.17
2023-03-26T23:04:39.473Z,82.04
2023-03-26T23:06:40.998Z,82.49
2023-03-26T23:08:42.852Z,83.37
2023-03-26T23:10:44.250Z,82.10
2023-03-26T23:12:45.757Z,82.10
2023-03-26T23:14:52.190Z,82.59
2023-03-26T23:16:53.640Z,82.61
2023-03-26T23:18:55.031Z,82.22
2023-03-26T23:20:58.497Z,83.29
2023-03-26T23:23:01.181Z,82.42
2023-03-26T23:25:03.237Z,81.92
2023-03-26T23:27:06.517Z,81.24
2023-03-26T23:29:07.954Z,81.09
2023-03-26T23:31:12.413Z,82.47
2023-03-26T23:33:14.408Z,82.31
2023-03-26T23:35:16.020Z,82.02
2023-03-26T23:37:22.781Z,83.34
2023-03-26T23:39:26.049Z,83.14
2023-03-26T23:41:27.554Z,81.43
2023-03-26T23:43:29.175Z,81.69
2023-03-26T23:45:30.786Z,83.02
2023-03-26T23:47:34.890Z,82.26
2023-03-26T23:49:37.315Z,84.24
2023-03-26T23:51:38.702Z,84.00
2023-03-26T23:53:40.193Z,82.20
2023-03-26T23:55:44.153Z,82.03
2023-03-26T23:57:46.267Z,83.08
2023-03-26T23:59:48.448Z,82.33
